Time;durP1;ratioP1;P1;durP2;ratioP2;P2;SDS_P1;SDS_P2;PMS_P1;PMS_P2;Temp;Humidity;BMP_temperature;BMP_pressure;BME280_temperature;BME280_humidity;BME280_pressure;Samples;Min_cycle;Max_cycle;Signal;HPM_P1;HPM_P2
2021/07/03 00:00:40;;;;;;;27.20;24.20;;;;;;;;;;5073099;28;20446;-72
2021/07/03 00:03:07;;;;;;;29.73;24.27;;;;;;;;;;5073340;28;20443;-72
2021/07/03 00:05:35;;;;;;;26.93;24.00;;;;;;;;;;5073433;28;20443;-72
2021/07/03 00:08:02;;;;;;;28.20;25.07;;;;;;;;;;5073353;28;20468;-72
2021/07/03 00:10:30;;;;;;;26.83;23.83;;;;;;;;;;5072885;28;20481;-72
2021/07/03 00:12:58;;;;;;;32.10;25.50;;;;;;;;;;5072990;28;20937;-74
2021/07/03 00:15:25;;;;;;;28.17;24.97;;;;;;;;;;5073968;28;20533;-73
2021/07/03 00:17:53;;;;;;;30.17;24.30;;;;;;;;;;5073060;28;20537;-72
2021/07/03 00:20:21;;;;;;;30.63;25.73;;;;;;;;;;5072885;28;20930;-72
2021/07/03 00:22:48;;;;;;;33.87;27.47;;;;;;;;;;5073282;28;20480;-72
2021/07/03 00:25:16;;;;;;;29.17;25.80;;;;;;;;;;5072847;28;20441;-73
2021/07/03 00:27:44;;;;;;;30.73;25.80;;;;;;;;;;5072755;28;20447;-73
2021/07/03 00:30:12;;;;;;;32.50;25.07;;;;;;;;;;5073110;28;20432;-73
2021/07/03 00:32:40;;;;;;;33.73;26.03;;;;;;;;;;5072962;28;20491;-72
2021/07/03 00:35:08;;;;;;;32.37;27.33;;;;;;;;;;5074360;28;20444;-73
2021/07/03 00:37:35;;;;;;;34.00;26.40;;;;;;;;;;5076411;28;20523;-73
2021/07/03 00:40:02;;;;;;;31.07;25.17;;;;;;;;;;5076348;28;20901;-72
2021/07/03 00:42:29;;;;;;;26.90;23.23;;;;;;;;;;5076346;28;20443;-72
2021/07/03 00:44:58;;;;;;;30.87;25.37;;;;;;;;;;5076269;28;20453;-72
2021/07/03 00:47:25;;;;;;;33.80;24.17;;;;;;;;;;5076527;28;20484;-70
2021/07/03 00:49:53;;;;;;;31.40;25.43;;;;;;;;;;5076540;28;20440;-70
2021/07/03 00:52:20;;;;;;;36.70;26.07;;;;;;;;;;5076526;28;20565;-70
2021/07/03 00:54:47;;;;;;;34.67;26.83;;;;;;;;;;5076148;28;20447;-70
2021/07/03 00:57:14;;;;;;;29.53;26.37;;;;;;;;;;5076421;28;20455;-70
2021/07/03 00:59:43;;;;;;;31.63;25.80;;;;;;;;;;5076578;28;20492;-69
2021/07/03 01:02:12;;;;;;;33.00;26.13;;;;;;;;;;5076009;28;20615;-70
2021/07/03 01:04:40;;;;;;;29.00;25.47;;;;;;;;;;5076271;28;20446;-70
2021/07/03 01:07:08;;;;;;;34.90;25.80;;;;;;;;;;5076248;28;20461;-70
2021/07/03 01:09:35;;;;;;;31.67;26.20;;;;;;;;;;5075862;28;20451;-70
2021/07/03 01:12:04;;;;;;;29.47;24.40;;;;;;;;;;5076070;28;20828;-70
2021/07/03 01:14:32;;;;;;;34.30;28.17;;;;;;;;;;5075795;28;20440;-70
2021/07/03 01:16:59;;;;;;;41.67;26.50;;;;;;;;;;5076273;28;20545;-70
2021/07/03 01:19:27;;;;;;;33.83;26.37;;;;;;;;;;5076344;28;20511;-70
2021/07/03 01:21:57;;;;;;;33.37;26.43;;;;;;;;;;5075953;28;20524;-70
2021/07/03 01:24:25;;;;;;;32.23;26.10;;;;;;;;;;5075852;28;20446;-71
2021/07/03 01:26:55;;;;;;;33.87;25.47;;;;;;;;;;5076003;28;20516;-71
2021/07/03 01:29:23;;;;;;;32.53;26.30;;;;;;;;;;5076015;28;20484;-71
2021/07/03 01:31:51;;;;;;;27.67;23.30;;;;;;;;;;5075573;28;20477;-70
2021/07/03 01:34:20;;;;;;;29.23;25.13;;;;;;;;;;5075705;28;20813;-71
2021/07/03 01:36:47;;;;;;;38.30;25.60;;;;;;;;;;5075956;28;20467;-71
2021/07/03 01:39:16;;;;;;;32.50;25.60;;;;;;;;;;5075626;28;20538;-71
2021/07/03 01:41:44;;;;;;;33.90;25.50;;;;;;;;;;5075555;28;20937;-71
2021/07/03 01:44:12;;;;;;;32.87;25.07;;;;;;;;;;5075632;28;20437;-70
2021/07/03 01:46:39;;;;;;;29.83;26.53;;;;;;;;;;5074832;28;20484;-71
2021/07/03 01:49:07;;;;;;;30.30;25.00;;;;;;;;;;5075454;28;20465;-71
2021/07/03 01:51:35;;;;;;;34.03;25.57;;;;;;;;;;5075294;28;20581;-71
2021/07/03 01:54:02;;;;;;;29.90;26.07;;;;;;;;;;5075005;28;21029;-71
2021/07/03 01:56:31;;;;;;;30.70;27.10;;;;;;;;;;5074951;28;20445;-71
2021/07/03 01:58:58;;;;;;;35.27;26.03;;;;;;;;;;5075205;28;20440;-71
2021/07/03 02:01:25;;;;;;;34.83;28.13;;;;;;;;;;5075146;28;20533;-71
2021/07/03 02:03:53;;;;;;;31.57;25.60;;;;;;;;;;5075444;28;20449;-71
2021/07/03 02:06:20;;;;;;;32.30;25.37;;;;;;;;;;5074777;28;20456;-71
2021/07/03 02:08:47;;;;;;;29.90;25.63;;;;;;;;;;5075651;28;20440;-71
2021/07/03 02:11:14;;;;;;;30.03;25.80;;;;;;;;;;5074603;28;20484;-70
2021/07/03 02:13:43;;;;;;;33.07;24.40;;;;;;;;;;5074980;28;20437;-72
2021/07/03 02:16:10;;;;;;;33.13;25.40;;;;;;;;;;5074476;28;20440;-71
2021/07/03 02:18:37;;;;;;;30.43;25.03;;;;;;;;;;5074560;28;20965;-71
2021/07/03 02:21:04;;;;;;;30.23;25.33;;;;;;;;;;5074786;28;20487;-71
2021/07/03 02:23:32;;;;;;;30.70;25.47;;;;;;;;;;5074461;28;20475;-71
2021/07/03 02:25:59;;;;;;;29.00;24.27;;;;;;;;;;5075186;28;20441;-71
2021/07/03 02:28:26;;;;;;;31.80;25.67;;;;;;;;;;5074389;28;20442;-71
2021/07/03 02:30:55;;;;;;;31.50;24.83;;;;;;;;;;5074296;28;20442;-71
2021/07/03 02:33:22;;;;;;;31.80;25.30;;;;;;;;;;5074412;28;20514;-71
2021/07/03 02:35:49;;;;;;;29.00;25.00;;;;;;;;;;5074215;28;20445;-71
2021/07/03 02:38:16;;;;;;;28.30;24.53;;;;;;;;;;5074459;28;20444;-72
2021/07/03 02:40:44;;;;;;;31.17;26.77;;;;;;;;;;5075262;28;20776;-72
2021/07/03 02:43:12;;;;;;;27.23;23.37;;;;;;;;;;5074377;28;20449;-72
2021/07/03 02:45:39;;;;;;;32.40;25.20;;;;;;;;;;5073760;28;20486;-71
2021/07/03 02:48:08;;;;;;;30.63;24.13;;;;;;;;;;5074048;28;20461;-71
2021/07/03 02:50:35;;;;;;;30.30;25.20;;;;;;;;;;5074194;28;20446;-70
2021/07/03 02:53:03;;;;;;;27.83;24.37;;;;;;;;;;5074120;28;20503;-70
2021/07/03 02:55:30;;;;;;;30.03;25.50;;;;;;;;;;5074594;28;20459;-70
2021/07/03 02:57:57;;;;;;;35.40;26.73;;;;;;;;;;5073583;28;20529;-70
2021/07/03 03:00:24;;;;;;;31.90;25.60;;;;;;;;;;5073496;28;20439;-70
2021/07/03 03:02:52;;;;;;;28.90;24.70;;;;;;;;;;5073751;28;20946;-70
2021/07/03 03:05:21;;;;;;;36.10;25.13;;;;;;;;;;5073687;28;20991;-71
2021/07/03 03:07:48;;;;;;;32.20;24.80;;;;;;;;;;5073714;28;20445;-71
2021/07/03 03:10:16;;;;;;;28.40;24.43;;;;;;;;;;5074030;28;20834;-71
2021/07/03 03:12:44;;;;;;;33.70;24.97;;;;;;;;;;5073477;28;20479;-71
2021/07/03 03:15:12;;;;;;;26.83;23.53;;;;;;;;;;5073585;28;20535;-71
2021/07/03 03:17:39;;;;;;;34.27;27.33;;;;;;;;;;5074317;28;20505;-71
2021/07/03 03:20:08;;;;;;;26.67;23.80;;;;;;;;;;5073884;28;20537;-71
2021/07/03 03:22:37;;;;;;;30.53;24.60;;;;;;;;;;5073785;28;20477;-71
2021/07/03 03:25:04;;;;;;;31.93;26.80;;;;;;;;;;5074031;28;20446;-71
2021/07/03 03:27:32;;;;;;;39.77;27.07;;;;;;;;;;5073398;28;20446;-71
2021/07/03 03:29:59;;;;;;;34.20;27.00;;;;;;;;;;5073935;28;20481;-71
2021/07/03 03:32:26;;;;;;;29.07;25.20;;;;;;;;;;5073602;28;20482;-72
2021/07/03 03:34:53;;;;;;;33.90;26.13;;;;;;;;;;5073887;28;20447;-72
2021/07/03 03:37:21;;;;;;;34.17;27.17;;;;;;;;;;5073680;28;20998;-71
2021/07/03 03:39:49;;;;;;;33.07;26.17;;;;;;;;;;5073685;28;20961;-71
2021/07/03 03:42:16;;;;;;;30.43;25.57;;;;;;;;;;5073341;28;20440;-71
2021/07/03 03:44:43;;;;;;;33.27;26.47;;;;;;;;;;5073437;28;20922;-71
2021/07/03 03:47:11;;;;;;;30.10;25.40;;;;;;;;;;5072970;28;20564;-71
2021/07/03 03:49:38;;;;;;;29.90;24.70;;;;;;;;;;5073605;28;20440;-71
2021/07/03 03:52:05;;;;;;;37.57;27.17;;;;;;;;;;5073454;28;20484;-71
2021/07/03 03:54:33;;;;;;;29.50;25.97;;;;;;;;;;5073392;28;20520;-71
2021/07/03 03:59:46;;;;;;;37.40;27.27;;;;;;;;;;5073488;28;20772;-71
2021/07/03 04:02:13;;;;;;;32.20;27.57;;;;;;;;;;5073814;28;20797;-70
2021/07/03 04:04:40;;;;;;;42.63;28.07;;;;;;;;;;5073079;28;20913;-71
2021/07/03 04:07:08;;;;;;;36.27;29.60;;;;;;;;;;5073687;28;20444;-71
2021/07/03 04:09:35;;;;;;;35.03;29.03;;;;;;;;;;5074022;28;20469;-71
2021/07/03 04:12:04;;;;;;;37.07;29.30;;;;;;;;;;5077407;28;20479;-70
2021/07/03 04:14:31;;;;;;;38.87;29.70;;;;;;;;;;5077556;28;20443;-70
2021/07/03 04:16:58;;;;;;;36.67;30.63;;;;;;;;;;5076891;28;20540;-70
2021/07/03 04:19:25;;;;;;;34.93;28.57;;;;;;;;;;5076822;28;20532;-71
2021/07/03 04:21:52;;;;;;;32.63;26.30;;;;;;;;;;5077644;28;20457;-72
2021/07/03 04:24:20;;;;;;;29.37;25.77;;;;;;;;;;5076805;28;20475;-72
2021/07/03 04:26:47;;;;;;;39.00;27.87;;;;;;;;;;5076979;28;20798;-70
2021/07/03 04:29:15;;;;;;;32.57;26.73;;;;;;;;;;5077742;28;20439;-70
2021/07/03 04:31:43;;;;;;;34.30;28.40;;;;;;;;;;5077167;28;20861;-69
2021/07/03 04:34:10;;;;;;;32.90;28.00;;;;;;;;;;5076111;28;20453;-69
2021/07/03 04:36:37;;;;;;;31.73;28.33;;;;;;;;;;5076775;28;20476;-69
2021/07/03 04:39:05;;;;;;;38.73;29.67;;;;;;;;;;5077160;28;20484;-69
2021/07/03 04:41:32;;;;;;;37.30;28.47;;;;;;;;;;5076909;28;20451;-69
2021/07/03 04:43:59;;;;;;;36.33;27.63;;;;;;;;;;5077196;28;20453;-69
2021/07/03 04:46:28;;;;;;;36.50;28.93;;;;;;;;;;5076271;28;20477;-70
2021/07/03 04:48:55;;;;;;;36.30;30.67;;;;;;;;;;5076256;28;20536;-69
2021/07/03 04:51:22;;;;;;;38.10;29.10;;;;;;;;;;5076534;28;20536;-69
2021/07/03 04:53:51;;;;;;;38.60;29.57;;;;;;;;;;5076364;28;20500;-69
2021/07/03 04:56:18;;;;;;;37.33;30.70;;;;;;;;;;5076550;28;20467;-69
2021/07/03 04:58:45;;;;;;;37.80;29.50;;;;;;;;;;5076444;28;20487;-69
2021/07/03 05:01:12;;;;;;;34.97;28.83;;;;;;;;;;5076465;28;20447;-69
2021/07/03 05:03:41;;;;;;;35.83;27.43;;;;;;;;;;5075735;28;20456;-69
2021/07/03 05:06:08;;;;;;;35.77;29.30;;;;;;;;;;5076413;28;20798;-69
2021/07/03 05:08:35;;;;;;;34.97;29.40;;;;;;;;;;5076208;28;20453;-69
2021/07/03 05:11:03;;;;;;;37.87;28.83;;;;;;;;;;5076297;28;20495;-69
2021/07/03 05:13:30;;;;;;;37.70;28.20;;;;;;;;;;5076040;28;20477;-70
2021/07/03 05:15:57;;;;;;;30.60;25.00;;;;;;;;;;5075916;28;20444;-70
2021/07/03 05:18:24;;;;;;;27.93;24.87;;;;;;;;;;5075569;28;20470;-69
2021/07/03 05:20:53;;;;;;;28.13;24.67;;;;;;;;;;5075551;28;20807;-69
2021/07/03 05:23:20;;;;;;;28.37;25.27;;;;;;;;;;5075104;28;20440;-69
2021/07/03 05:25:48;;;;;;;26.57;23.53;;;;;;;;;;5075907;28;20525;-70
2021/07/03 05:28:16;;;;;;;28.77;23.60;;;;;;;;;;5075860;28;20446;-69
2021/07/03 05:30:43;;;;;;;26.70;23.90;;;;;;;;;;5075970;28;20800;-69
2021/07/03 05:33:11;;;;;;;31.17;24.47;;;;;;;;;;5075501;28;20468;-69
2021/07/03 05:35:38;;;;;;;28.93;24.70;;;;;;;;;;5075298;28;20472;-69
2021/07/03 05:38:06;;;;;;;30.87;26.63;;;;;;;;;;5075569;28;20447;-69
2021/07/03 05:40:33;;;;;;;32.03;26.00;;;;;;;;;;5075546;28;20437;-70
2021/07/03 05:43:01;;;;;;;31.77;26.13;;;;;;;;;;5075052;28;20950;-69
2021/07/03 05:45:28;;;;;;;32.03;27.37;;;;;;;;;;5075654;28;20442;-70
2021/07/03 05:47:55;;;;;;;38.90;29.63;;;;;;;;;;5075014;28;20479;-69
2021/07/03 05:50:23;;;;;;;37.22;30.17;;;;;;;;;;5074014;28;20438;-69
2021/07/03 05:52:51;;;;;;;39.33;29.70;;;;;;;;;;5074971;28;20309;-69
2021/07/03 05:55:20;;;;;;;33.67;28.67;;;;;;;;;;5075307;28;20437;-69
2021/07/03 05:57:47;;;;;;;36.47;30.10;;;;;;;;;;5075162;28;20457;-72
2021/07/03 06:00:15;;;;;;;38.87;29.47;;;;;;;;;;5075292;28;20448;-69
2021/07/03 06:02:42;;;;;;;40.67;28.37;;;;;;;;;;5075022;28;20528;-68
2021/07/03 06:05:10;;;;;;;36.10;27.03;;;;;;;;;;5074911;28;20464;-68
2021/07/03 06:07:37;;;;;;;36.67;27.83;;;;;;;;;;5075182;28;20843;-70
2021/07/03 06:10:05;;;;;;;35.53;27.80;;;;;;;;;;5075138;28;20484;-69
2021/07/03 06:12:33;;;;;;;36.70;26.70;;;;;;;;;;5075339;28;20563;-69
2021/07/03 06:15:01;;;;;;;35.37;27.70;;;;;;;;;;5074958;28;20476;-69
2021/07/03 06:17:28;;;;;;;35.60;26.57;;;;;;;;;;5074719;28;20541;-69
2021/07/03 06:19:55;;;;;;;43.10;29.60;;;;;;;;;;5074904;28;20793;-69
2021/07/03 06:22:22;;;;;;;40.10;29.23;;;;;;;;;;5075265;28;20441;-69
2021/07/03 06:24:49;;;;;;;35.83;28.07;;;;;;;;;;5075002;28;20503;-69
2021/07/03 06:27:17;;;;;;;37.70;29.60;;;;;;;;;;5074694;28;20443;-69
2021/07/03 06:29:46;;;;;;;33.63;27.47;;;;;;;;;;5074631;28;20439;-69
2021/07/03 06:32:13;;;;;;;35.50;28.20;;;;;;;;;;5074019;28;20524;-69
2021/07/03 06:34:40;;;;;;;34.40;28.20;;;;;;;;;;5074203;28;20491;-69
2021/07/03 06:37:08;;;;;;;40.97;31.40;;;;;;;;;;5074303;28;20444;-69
2021/07/03 06:39:35;;;;;;;37.73;28.37;;;;;;;;;;5074111;28;20452;-69
2021/07/03 06:42:02;;;;;;;38.67;28.97;;;;;;;;;;5074174;28;20454;-68
2021/07/03 06:44:30;;;;;;;39.87;28.70;;;;;;;;;;5074478;28;20456;-68
2021/07/03 06:46:58;;;;;;;33.40;25.40;;;;;;;;;;5074372;28;20886;-68
2021/07/03 06:49:25;;;;;;;34.10;26.70;;;;;;;;;;5073936;28;20974;-69
2021/07/03 06:51:53;;;;;;;39.77;28.97;;;;;;;;;;5074155;28;20468;-68
2021/07/03 06:54:20;;;;;;;38.77;29.53;;;;;;;;;;5074553;28;20486;-68
2021/07/03 06:56:47;;;;;;;43.20;29.67;;;;;;;;;;5073851;28;20480;-68
2021/07/03 06:59:15;;;;;;;39.30;29.40;;;;;;;;;;5074029;28;20487;-69
2021/07/03 07:01:42;;;;;;;46.70;32.00;;;;;;;;;;5073665;28;20444;-69
2021/07/03 07:04:10;;;;;;;38.20;30.27;;;;;;;;;;5073968;28;20780;-69
2021/07/03 07:06:38;;;;;;;42.50;29.47;;;;;;;;;;5073618;28;20474;-69
2021/07/03 07:09:05;;;;;;;37.50;27.73;;;;;;;;;;5074406;28;20453;-68
2021/07/03 07:11:32;;;;;;;33.40;26.27;;;;;;;;;;5074173;28;20480;-68
2021/07/03 07:13:59;;;;;;;32.60;26.50;;;;;;;;;;5073815;28;20505;-68
2021/07/03 07:16:26;;;;;;;39.93;26.93;;;;;;;;;;5073798;28;20531;-68
2021/07/03 07:18:54;;;;;;;33.10;26.13;;;;;;;;;;5073849;28;20529;-68
2021/07/03 07:21:22;;;;;;;35.23;28.83;;;;;;;;;;5073544;28;20538;-69
2021/07/03 07:23:49;;;;;;;34.90;28.47;;;;;;;;;;5073698;28;20445;-69
2021/07/03 07:26:17;;;;;;;31.97;25.87;;;;;;;;;;5073702;28;20436;-69
2021/07/03 07:28:44;;;;;;;39.23;26.37;;;;;;;;;;5073593;28;20947;-68
2021/07/03 07:31:11;;;;;;;34.30;24.23;;;;;;;;;;5073840;28;20537;-68
2021/07/03 07:33:39;;;;;;;34.17;26.93;;;;;;;;;;5073115;28;21004;-68
2021/07/03 07:36:06;;;;;;;34.63;26.90;;;;;;;;;;5073289;28;20474;-69
2021/07/03 07:38:34;;;;;;;31.37;24.80;;;;;;;;;;5073864;28;20442;-68
2021/07/03 07:41:02;;;;;;;35.67;26.53;;;;;;;;;;5073265;28;20957;-68
2021/07/03 07:43:29;;;;;;;34.13;24.37;;;;;;;;;;5073277;28;20444;-68
2021/07/03 07:45:56;;;;;;;33.93;26.13;;;;;;;;;;5072594;28;20966;-68
2021/07/03 07:48:24;;;;;;;32.00;25.73;;;;;;;;;;5073231;28;20431;-67
2021/07/03 07:50:51;;;;;;;32.20;27.03;;;;;;;;;;5073481;28;20441;-68
2021/07/03 07:53:19;;;;;;;31.33;25.87;;;;;;;;;;5073068;28;20471;-68
2021/07/03 07:55:47;;;;;;;33.37;24.03;;;;;;;;;;5073499;28;20849;-67
2021/07/03 07:58:19;;;;;;;37.80;25.57;;;;;;;;;;5073124;28;20444;-67
2021/07/03 08:00:47;;;;;;;29.20;26.10;;;;;;;;;;5073365;28;20931;-67
2021/07/03 08:03:14;;;;;;;35.17;27.47;;;;;;;;;;5073289;28;20529;-68
2021/07/03 08:05:41;;;;;;;33.10;26.83;;;;;;;;;;5073759;28;20447;-68
2021/07/03 08:08:08;;;;;;;34.93;27.30;;;;;;;;;;5073125;28;20486;-68
2021/07/03 08:10:35;;;;;;;36.03;25.37;;;;;;;;;;5073154;28;20448;-68
2021/07/03 08:13:04;;;;;;;36.93;27.27;;;;;;;;;;5073376;28;20446;-68
2021/07/03 08:15:32;;;;;;;36.47;29.87;;;;;;;;;;5073469;28;20473;-67
2021/07/03 08:17:59;;;;;;;40.80;29.30;;;;;;;;;;5073266;28;20443;-67
2021/07/03 08:20:26;;;;;;;39.30;28.60;;;;;;;;;;5072908;28;20443;-67
2021/07/03 08:22:55;;;;;;;39.20;29.87;;;;;;;;;;5072907;28;21014;-67
2021/07/03 08:25:23;;;;;;;34.20;29.03;;;;;;;;;;5072993;28;20869;-68
2021/07/03 08:27:51;;;;;;;38.33;29.70;;;;;;;;;;5073005;28;20479;-66
2021/07/03 08:30:20;;;;;;;38.17;29.10;;;;;;;;;;5072986;28;20442;-66
2021/07/03 08:32:48;;;;;;;35.30;28.93;;;;;;;;;;5072487;28;20450;-66
2021/07/03 08:35:15;;;;;;;42.57;28.80;;;;;;;;;;5072621;28;20524;-67
2021/07/03 08:37:43;;;;;;;38.97;28.93;;;;;;;;;;5072821;28;20442;-71
2021/07/03 08:40:11;;;;;;;39.70;31.50;;;;;;;;;;5072630;28;20439;-70
2021/07/03 08:42:38;;;;;;;36.53;27.87;;;;;;;;;;5072532;28;20453;-70
2021/07/03 08:45:06;;;;;;;38.37;29.80;;;;;;;;;;5072811;28;20503;-69
2021/07/03 08:47:35;;;;;;;34.80;28.27;;;;;;;;;;5072986;28;20565;-68
2021/07/03 08:50:03;;;;;;;37.20;27.27;;;;;;;;;;5072795;28;20797;-68
2021/07/03 08:52:31;;;;;;;36.40;28.17;;;;;;;;;;5072737;28;20438;-68
2021/07/03 08:55:08;;;;;;;35.30;28.47;;;;;;;;;;5065719;28;20572;-68
2021/07/03 08:57:41;;;;;;;36.70;27.93;;;;;;;;;;5057614;28;20470;-68
2021/07/03 09:00:09;;;;;;;37.43;28.90;;;;;;;;;;5068154;28;20445;-68
2021/07/03 09:02:39;;;;;;;33.63;26.90;;;;;;;;;;5075184;28;20467;-68
2021/07/03 09:05:07;;;;;;;30.00;25.83;;;;;;;;;;5076318;28;20482;-68
2021/07/03 09:07:36;;;;;;;31.77;27.50;;;;;;;;;;5076125;28;20433;-68
2021/07/03 09:10:03;;;;;;;35.90;26.93;;;;;;;;;;5075986;28;20527;-68
2021/07/03 09:12:32;;;;;;;31.13;24.17;;;;;;;;;;5076212;28;20439;-68
2021/07/03 09:15:09;;;;;;;28.83;24.37;;;;;;;;;;5075919;28;20842;-68
2021/07/03 09:17:46;;;;;;;33.37;23.90;;;;;;;;;;5076152;28;20450;-68
2021/07/03 09:20:14;;;;;;;29.77;24.80;;;;;;;;;;5075514;28;20511;-68
2021/07/03 09:22:41;;;;;;;30.57;25.70;;;;;;;;;;5075796;28;20509;-68
2021/07/03 09:25:16;;;;;;;40.10;27.70;;;;;;;;;;5075312;28;20468;-68
2021/07/03 09:27:44;;;;;;;28.13;23.60;;;;;;;;;;5075848;28;20427;-68
2021/07/03 09:30:11;;;;;;;35.10;26.50;;;;;;;;;;5075390;28;21016;-68
2021/07/03 09:32:39;;;;;;;30.73;23.67;;;;;;;;;;5076083;28;20535;-68
2021/07/03 09:35:11;;;;;;;32.93;25.40;;;;;;;;;;5075253;28;21041;-68
2021/07/03 09:37:38;;;;;;;29.40;22.80;;;;;;;;;;5075521;28;20860;-68
2021/07/03 09:40:07;;;;;;;29.70;23.30;;;;;;;;;;5071940;28;20534;-69
2021/07/03 09:42:37;;;;;;;27.53;21.77;;;;;;;;;;5072587;28;20573;-69
2021/07/03 09:45:04;;;;;;;29.87;23.20;;;;;;;;;;5075371;28;20539;-69
2021/07/03 09:47:32;;;;;;;29.40;23.20;;;;;;;;;;5075718;28;20487;-68
2021/07/03 09:50:03;;;;;;;24.30;20.27;;;;;;;;;;5075084;28;20527;-68
2021/07/03 09:52:31;;;;;;;27.53;22.77;;;;;;;;;;5075122;28;20424;-68
2021/07/03 09:54:58;;;;;;;26.00;21.80;;;;;;;;;;5075024;28;20566;-68
2021/07/03 09:57:26;;;;;;;30.57;22.50;;;;;;;;;;5075191;28;20530;-68
2021/07/03 09:59:53;;;;;;;29.93;23.00;;;;;;;;;;5074853;28;20522;-68
2021/07/03 10:02:20;;;;;;;28.00;22.07;;;;;;;;;;5074782;28;21035;-68
2021/07/03 10:04:47;;;;;;;26.73;23.50;;;;;;;;;;5075084;28;20479;-68
2021/07/03 10:07:20;;;;;;;23.13;20.63;;;;;;;;;;5074690;28;20447;-68
2021/07/03 10:09:51;;;;;;;27.70;22.57;;;;;;;;;;5074824;28;20441;-69
2021/07/03 10:12:23;;;;;;;24.67;22.00;;;;;;;;;;5075066;28;20429;-68
2021/07/03 10:14:52;;;;;;;25.80;22.30;;;;;;;;;;5074565;28;20562;-69
2021/07/03 10:17:24;;;;;;;21.40;18.50;;;;;;;;;;5074901;28;20452;-69
2021/07/03 10:19:51;;;;;;;22.67;19.00;;;;;;;;;;5074784;28;20412;-68
2021/07/03 10:22:19;;;;;;;20.83;18.67;;;;;;;;;;5074577;28;20445;-69
2021/07/03 10:24:50;;;;;;;25.33;20.23;;;;;;;;;;5074402;28;20448;-68
2021/07/03 10:27:18;;;;;;;26.20;19.97;;;;;;;;;;5074681;28;20531;-68
2021/07/03 10:29:47;;;;;;;22.37;19.37;;;;;;;;;;5074799;28;20448;-68
2021/07/03 10:32:21;;;;;;;23.43;18.70;;;;;;;;;;5074376;28;20444;-69
2021/07/03 10:34:49;;;;;;;24.33;19.07;;;;;;;;;;5074054;28;20570;-68
2021/07/03 10:37:18;;;;;;;25.77;19.27;;;;;;;;;;5074026;28;20532;-69
2021/07/03 10:39:45;;;;;;;20.93;16.77;;;;;;;;;;5074408;28;20440;-68
2021/07/03 10:42:14;;;;;;;23.50;16.70;;;;;;;;;;5074522;28;20615;-68
2021/07/03 10:44:42;;;;;;;19.00;16.30;;;;;;;;;;5074184;28;20529;-68
2021/07/03 10:47:09;;;;;;;19.37;16.20;;;;;;;;;;5074239;28;20882;-68
2021/07/03 10:49:42;;;;;;;21.60;17.70;;;;;;;;;;5074139;28;20502;-68
2021/07/03 10:52:14;;;;;;;18.93;15.60;;;;;;;;;;5074161;28;20438;-69
2021/07/03 10:54:42;;;;;;;16.83;14.90;;;;;;;;;;5073915;28;20799;-69
2021/07/03 10:57:10;;;;;;;20.33;17.20;;;;;;;;;;5074231;28;20446;-68
2021/07/03 10:59:40;;;;;;;20.23;14.73;;;;;;;;;;5073915;28;20498;-68
2021/07/03 11:02:08;;;;;;;17.40;13.93;;;;;;;;;;5073899;28;20535;-68
2021/07/03 11:04:44;;;;;;;20.13;14.80;;;;;;;;;;5073806;28;20476;-68
2021/07/03 11:07:13;;;;;;;22.63;15.37;;;;;;;;;;5073592;28;20425;-68
2021/07/03 11:09:40;;;;;;;16.20;14.50;;;;;;;;;;5074085;28;20444;-68
2021/07/03 11:12:17;;;;;;;20.03;15.37;;;;;;;;;;5073828;28;20449;-68
2021/07/03 11:14:52;;;;;;;18.83;14.77;;;;;;;;;;5073683;28;20452;-68
2021/07/03 11:17:21;;;;;;;16.57;14.87;;;;;;;;;;5073869;28;20534;-68
2021/07/03 11:19:50;;;;;;;17.20;12.87;;;;;;;;;;5072862;28;20502;-68
2021/07/03 11:22:17;;;;;;;13.53;11.27;;;;;;;;;;5073803;28;20534;-68
2021/07/03 11:24:46;;;;;;;13.30;12.00;;;;;;;;;;5073593;28;20453;-68
2021/07/03 11:27:13;;;;;;;15.00;12.57;;;;;;;;;;5073435;28;20520;-68
2021/07/03 11:29:44;;;;;;;17.10;13.57;;;;;;;;;;5073798;28;20441;-68
2021/07/03 11:32:14;;;;;;;15.67;14.03;;;;;;;;;;5073947;28;20428;-68
2021/07/03 11:34:51;;;;;;;16.67;14.53;;;;;;;;;;5073532;28;20892;-67
2021/07/03 11:37:25;;;;;;;15.63;13.20;;;;;;;;;;5073772;28;20432;-68
2021/07/03 11:39:53;;;;;;;20.37;15.77;;;;;;;;;;5074298;28;20425;-67
2021/07/03 11:42:26;;;;;;;18.13;16.33;;;;;;;;;;5073629;28;20484;-68
2021/07/03 11:44:53;;;;;;;18.63;15.87;;;;;;;;;;5074038;28;20424;-68
2021/07/03 11:47:32;;;;;;;21.73;13.90;;;;;;;;;;5073403;28;20534;-68
2021/07/03 11:49:59;;;;;;;19.40;14.23;;;;;;;;;;5073559;28;20424;-68
2021/07/03 11:52:26;;;;;;;14.10;12.70;;;;;;;;;;5073703;28;20861;-68
2021/07/03 11:55:03;;;;;;;15.57;13.97;;;;;;;;;;5073380;28;20476;-68
2021/07/03 11:57:37;;;;;;;17.33;13.70;;;;;;;;;;5073019;28;20511;-68
2021/07/03 12:00:05;;;;;;;15.13;13.53;;;;;;;;;;5073519;28;20468;-67
2021/07/03 12:02:34;;;;;;;14.10;12.33;;;;;;;;;;5073238;28;20529;-68
2021/07/03 12:05:01;;;;;;;14.37;12.13;;;;;;;;;;5073237;28;20802;-68
2021/07/03 12:07:28;;;;;;;12.73;11.43;;;;;;;;;;5073283;28;20448;-67
2021/07/03 12:10:02;;;;;;;14.33;12.57;;;;;;;;;;5073236;28;20467;-69
2021/07/03 12:12:29;;;;;;;19.13;13.27;;;;;;;;;;5073594;28;20430;-68
2021/07/03 12:15:03;;;;;;;16.13;12.07;;;;;;;;;;5072751;28;20479;-68
2021/07/03 12:17:30;;;;;;;13.03;10.90;;;;;;;;;;5073327;28;20919;-68
2021/07/03 12:20:10;;;;;;;13.83;12.43;;;;;;;;;;5072790;28;20449;-68
2021/07/03 12:22:38;;;;;;;13.67;10.70;;;;;;;;;;5072854;28;20456;-67
2021/07/03 12:25:12;;;;;;;11.00;9.87;;;;;;;;;;5072752;28;20942;-68
2021/07/03 12:27:39;;;;;;;13.77;11.17;;;;;;;;;;5067446;28;20981;-67
2021/07/03 12:30:07;;;;;;;12.37;11.27;;;;;;;;;;5055120;28;20449;-67
2021/07/03 12:32:34;;;;;;;12.07;10.83;;;;;;;;;;5056578;28;20439;-67
2021/07/03 12:35:11;;;;;;;12.00;10.67;;;;;;;;;;5056297;28;20490;-68
2021/07/03 12:37:38;;;;;;;12.60;11.30;;;;;;;;;;5057031;28;20520;-68
2021/07/03 12:40:15;;;;;;;14.00;11.67;;;;;;;;;;5056393;28;20487;-68
2021/07/03 12:42:43;;;;;;;11.50;10.20;;;;;;;;;;5056713;28;20496;-67
2021/07/03 12:45:11;;;;;;;11.10;10.00;;;;;;;;;;5056499;28;20442;-67
2021/07/03 12:47:39;;;;;;;13.43;11.07;;;;;;;;;;5056406;28;20524;-67
2021/07/03 12:50:08;;;;;;;10.80;9.80;;;;;;;;;;5056548;28;20473;-67
2021/07/03 12:52:37;;;;;;;11.20;10.20;;;;;;;;;;5056299;28;20534;-68
2021/07/03 12:55:05;;;;;;;12.77;11.47;;;;;;;;;;5056810;28;20469;-68
2021/07/03 12:57:39;;;;;;;11.33;10.33;;;;;;;;;;5060219;28;20526;-67
2021/07/03 13:00:07;;;;;;;12.50;10.20;;;;;;;;;;5075872;28;20451;-67
2021/07/03 13:02:35;;;;;;;11.53;9.83;;;;;;;;;;5076442;28;20542;-68
2021/07/03 13:05:03;;;;;;;11.37;10.30;;;;;;;;;;5075821;28;20434;-67
2021/07/03 13:07:30;;;;;;;11.27;9.90;;;;;;;;;;5076174;28;20526;-68
2021/07/03 13:09:59;;;;;;;10.77;9.50;;;;;;;;;;5076181;28;20447;-68
2021/07/03 13:12:26;;;;;;;12.73;9.43;;;;;;;;;;5076520;28;20956;-68
2021/07/03 13:14:53;;;;;;;9.83;8.83;;;;;;;;;;5061317;28;20493;-68
2021/07/03 13:17:20;;;;;;;11.13;9.80;;;;;;;;;;5055650;28;20422;-67
2021/07/03 13:19:47;;;;;;;10.60;9.50;;;;;;;;;;5055901;28;20471;-68
2021/07/03 13:22:15;;;;;;;10.30;8.50;;;;;;;;;;5056266;28;20453;-68
2021/07/03 13:24:43;;;;;;;10.60;9.60;;;;;;;;;;5055441;28;20424;-67
2021/07/03 13:27:12;;;;;;;10.97;9.87;;;;;;;;;;5055831;28;20449;-67
2021/07/03 13:29:39;;;;;;;9.97;9.13;;;;;;;;;;5055452;28;20454;-67
2021/07/03 13:32:07;;;;;;;10.57;9.60;;;;;;;;;;5055669;28;20794;-67
2021/07/03 13:34:35;;;;;;;10.63;9.37;;;;;;;;;;5055601;28;20453;-67
2021/07/03 13:37:02;;;;;;;10.87;9.73;;;;;;;;;;5055335;28;20922;-68
2021/07/03 13:39:29;;;;;;;10.67;9.57;;;;;;;;;;5056051;28;20468;-67
2021/07/03 13:41:57;;;;;;;11.57;9.70;;;;;;;;;;5054721;28;20427;-67
2021/07/03 13:44:25;;;;;;;10.03;9.10;;;;;;;;;;5070683;28;20455;-67
2021/07/03 13:46:52;;;;;;;9.50;8.70;;;;;;;;;;5075686;28;20509;-68
2021/07/03 13:49:20;;;;;;;10.33;9.13;;;;;;;;;;5075442;28;20799;-68
2021/07/03 13:51:47;;;;;;;12.37;10.00;;;;;;;;;;5075362;28;20447;-68
2021/07/03 13:54:14;;;;;;;10.17;9.17;;;;;;;;;;5074987;28;20481;-68
2021/07/03 13:56:42;;;;;;;10.97;10.07;;;;;;;;;;5075096;28;20484;-68
2021/07/03 13:59:09;;;;;;;10.00;9.10;;;;;;;;;;5075164;28;20440;-68
2021/07/03 14:01:37;;;;;;;10.80;8.20;;;;;;;;;;5074787;28;20518;-68
2021/07/03 14:04:05;;;;;;;10.13;9.23;;;;;;;;;;5074974;28;20419;-68
2021/07/03 14:06:32;;;;;;;9.70;8.80;;;;;;;;;;5074976;28;20490;-68
2021/07/03 14:08:59;;;;;;;11.27;10.13;;;;;;;;;;5074625;28;20506;-67
2021/07/03 14:11:26;;;;;;;10.60;9.27;;;;;;;;;;5067495;28;20800;-68
2021/07/03 14:13:54;;;;;;;10.30;9.40;;;;;;;;;;5054732;28;20423;-67
2021/07/03 14:16:21;;;;;;;10.40;9.43;;;;;;;;;;5068045;28;20539;-68
2021/07/03 14:18:50;;;;;;;13.27;10.03;;;;;;;;;;5074388;28;20514;-67
2021/07/03 14:21:17;;;;;;;9.70;8.90;;;;;;;;;;5074358;28;20936;-67
2021/07/03 14:23:44;;;;;;;10.37;9.20;;;;;;;;;;5075254;28;20414;-67
2021/07/03 14:26:11;;;;;;;9.30;8.40;;;;;;;;;;5074223;28;20536;-67